Time;durP1;ratioP1;P1;durP2;ratioP2;P2;SDS_P1;SDS_P2;PMS_P1;PMS_P2;Temp;Humidity;BMP_temperature;BMP_pressure;BME280_temperature;BME280_humidity;BME280_pressure;Samples;Min_cycle;Max_cycle;Signal;HPM_P1;HPM_P2
2023/12/26 00:01:35;;;;;;;;;;;;;;;;;;2209408;66;3427;-17
2023/12/26 00:04:06;;;;;;;;;;;;;;;;;;2206477;66;2088;-18
2023/12/26 00:06:38;;;;;;;;;;;;;;;;;;2210815;66;1876;-20
2023/12/26 00:09:08;;;;;;;;;;;;;;;;;;2209600;59;2235;-18
2023/12/26 00:11:46;;;;;;;;;;;;;;;;;;2206041;59;2245;-18
2023/12/26 00:14:17;;;;;;;;;;;;;;;;;;2210416;58;1709;-20
2023/12/26 00:16:48;;;;;;;;;;;;;;;;;;2205944;66;1943;-17
2023/12/26 00:19:18;;;;;;;;;;;;;;;;;;2205604;67;2477;-18
2023/12/26 00:21:49;;;;;;;;;;;;;;;;;;2204260;59;1754;-18
2023/12/26 00:24:19;;;;;;;;;;;;;;;;;;2208956;58;2142;-20
2023/12/26 00:26:49;;;;;;;;;;;;;;;;;;2208351;59;2499;-20
2023/12/26 00:29:20;;;;;;;;;;;;;;;;;;2205622;59;2352;-20
2023/12/26 00:31:51;;;;;;;;;;;;;;;;;;2202171;59;2149;-20
2023/12/26 00:34:22;;;;;;;;;;;;;;;;;;2206609;59;2471;-17
2023/12/26 00:36:52;;;;;;;;;;;;;;;;;;2207661;59;3497;-20
2023/12/26 00:39:23;;;;;;;;;;;;;;;;;;2203562;59;1875;-17
2023/12/26 00:41:53;;;;;;;;;;;;;;;;;;2204052;66;1992;-17
2023/12/26 00:44:24;;;;;;;;;;;;;;;;;;2204205;59;1987;-20
2023/12/26 00:46:55;;;;;;;;;;;;;;;;;;2207001;66;2547;-18
2023/12/26 00:49:25;;;;;;;;;;;;;;;;;;2204670;66;1890;-18
2023/12/26 00:51:56;;;;;;;;;;;;;;;;;;2205663;59;2291;-19
2023/12/26 00:54:26;;;;;;;;;;;;;;;;;;2205197;67;2011;-17
2023/12/26 00:56:57;;;;;;;;;;;;;;;;;;2205848;58;1881;-18
2023/12/26 00:59:29;;;;;;;;;;;;;;;;;;2203619;67;1971;-18
2023/12/26 01:02:01;;;;;;;;;;;;;;;;;;2208160;59;2545;-19
2023/12/26 01:04:32;;;;;;;;;;;;;;;;;;2206200;59;1889;-17
2023/12/26 01:07:04;;;;;;;;;;;;;;;;;;2203633;66;2667;-17
2023/12/26 01:09:35;;;;;;;;;;;;;;;;;;2209549;59;2117;-18
2023/12/26 01:12:06;;;;;;;;;;;;;;;;;;2203075;59;2012;-17
2023/12/26 01:14:36;;;;;;;;;;;;;;;;;;2210014;58;2397;-18
2023/12/26 01:17:07;;;;;;;;;;;;;;;;;;2207509;66;2031;-18
2023/12/26 01:19:38;;;;;;;;;;;;;;;;;;2205979;59;2071;-18
2023/12/26 01:22:08;;;;;;;;;;;;;;;;;;2205792;59;2656;-18
2023/12/26 01:24:38;;;;;;;;;;;;;;;;;;2205004;59;1879;-18
2023/12/26 01:27:09;;;;;;;;;;;;;;;;;;2208035;59;2531;-18
2023/12/26 01:29:40;;;;;;;;;;;;;;;;;;2205816;59;2112;-20
2023/12/26 01:32:11;;;;;;;;;;;;;;;;;;2205519;59;2455;-18
2023/12/26 01:34:42;;;;;;;;;;;;;;;;;;2205578;59;2913;-18
2023/12/26 01:37:14;;;;;;;;;;;;;;;;;;2207993;58;1975;-18
2023/12/26 01:39:45;;;;;;;;;;;;;;;;;;2208433;59;2164;-18
2023/12/26 01:42:15;;;;;;;;;;;;;;;;;;2203870;66;1882;-18
2023/12/26 01:44:46;;;;;;;;;;;;;;;;;;2208595;59;2864;-27
2023/12/26 01:47:17;;;;;;;;;;;;;;;;;;2205063;59;2820;-18
2023/12/26 01:49:47;;;;;;;;;;;;;;;;;;2208545;59;2125;-18
2023/12/26 01:52:19;;;;;;;;;;;;;;;;;;2205462;66;2047;-18
2023/12/26 01:54:50;;;;;;;;;;;;;;;;;;2206491;66;2665;-18
2023/12/26 01:57:20;;;;;;;;;;;;;;;;;;2205682;59;2484;-20
2023/12/26 01:59:52;;;;;;;;;;;;;;;;;;2208930;66;2302;-20
2023/12/26 02:02:23;;;;;;;;;;;;;;;;;;2209404;59;2288;-20
2023/12/26 02:04:55;;;;;;;;;;;;;;;;;;2205436;66;2028;-18
2023/12/26 02:07:25;;;;;;;;;;;;;;;;;;2205181;67;1994;-18
2023/12/26 02:09:56;;;;;;;;;;;;;;;;;;2205482;66;2932;-17
2023/12/26 02:12:26;;;;;;;;;;;;;;;;;;2209452;59;2746;-18
2023/12/26 02:14:57;;;;;;;;;;;;;;;;;;2208833;58;1982;-17
2023/12/26 02:17:29;;;;;;;;;;;;;;;;;;2208448;66;3315;-20
2023/12/26 02:19:59;;;;;;;;;;;;;;;;;;2208415;59;3283;-18
2023/12/26 02:22:30;;;;;;;;;;;;;;;;;;2209057;66;2847;-18
2023/12/26 02:25:00;;;;;;;;;;;;;;;;;;2208706;59;1830;-25
2023/12/26 02:27:34;;;;;;;;;;;;;;;;;;2203014;59;1941;-20
2023/12/26 02:30:08;;;;;;;;;;;;;;;;;;2204733;66;2231;-18
2023/12/26 02:32:40;;;;;;;;;;;;;;;;;;2208853;59;2526;-18
2023/12/26 02:35:11;;;;;;;;;;;;;;;;;;2205265;66;1882;-18
2023/12/26 02:37:42;;;;;;;;;;;;;;;;;;2207883;66;2396;-20
2023/12/26 02:40:12;;;;;;;;;;;;;;;;;;2202678;59;2364;-20
2023/12/26 02:42:43;;;;;;;;;;;;;;;;;;2208372;66;2085;-20
2023/12/26 02:45:14;;;;;;;;;;;;;;;;;;2204145;59;2443;-19
2023/12/26 02:47:45;;;;;;;;;;;;;;;;;;2204846;59;2446;-20
2023/12/26 02:50:15;;;;;;;;;;;;;;;;;;2207771;59;2805;-18
2023/12/26 02:52:46;;;;;;;;;;;;;;;;;;2208788;59;2401;-18
2023/12/26 02:55:16;;;;;;;;;;;;;;;;;;2205012;66;2187;-18
2023/12/26 02:57:47;;;;;;;;;;;;;;;;;;2205970;59;1611;-18
2023/12/26 03:00:18;;;;;;;;;;;;;;;;;;2208741;66;1408;-20
2023/12/26 03:02:49;;;;;;;;;;;;;;;;;;2202908;59;2190;-20
2023/12/26 03:05:19;;;;;;;;;;;;;;;;;;2207779;66;1721;-18
2023/12/26 03:07:50;;;;;;;;;;;;;;;;;;2209684;66;2367;-20
2023/12/26 03:10:20;;;;;;;;;;;;;;;;;;2208569;59;1621;-18
2023/12/26 03:12:51;;;;;;;;;;;;;;;;;;2205039;67;1310;-20
2023/12/26 03:15:21;;;;;;;;;;;;;;;;;;2208063;58;1425;-20
2023/12/26 03:17:53;;;;;;;;;;;;;;;;;;2208562;66;1873;-20
2023/12/26 03:20:23;;;;;;;;;;;;;;;;;;2207837;66;1536;-20
2023/12/26 03:22:54;;;;;;;;;;;;;;;;;;2204978;66;1305;-20
2023/12/26 03:25:24;;;;;;;;;;;;;;;;;;2206356;60;1577;-18
2023/12/26 03:27:54;;;;;;;;;;;;;;;;;;2208791;66;1935;-18
2023/12/26 03:30:25;;;;;;;;;;;;;;;;;;2207153;59;1554;-20
2023/12/26 03:32:55;;;;;;;;;;;;;;;;;;2207711;59;2109;-18
2023/12/26 03:35:25;;;;;;;;;;;;;;;;;;2208553;66;1532;-20
2023/12/26 03:37:56;;;;;;;;;;;;;;;;;;2204419;66;1729;-20
2023/12/26 03:40:26;;;;;;;;;;;;;;;;;;2207660;66;2318;-20
2023/12/26 03:42:56;;;;;;;;;;;;;;;;;;2207289;66;1276;-20
2023/12/26 03:45:28;;;;;;;;;;;;;;;;;;2208468;66;1345;-18
2023/12/26 03:47:59;;;;;;;;;;;;;;;;;;2207217;66;1927;-20
2023/12/26 03:50:29;;;;;;;;;;;;;;;;;;2204535;60;2144;-20
2023/12/26 03:52:59;;;;;;;;;;;;;;;;;;2204926;66;1320;-20
2023/12/26 03:55:29;;;;;;;;;;;;;;;;;;2202201;67;1558;-18
2023/12/26 03:58:00;;;;;;;;;;;;;;;;;;2207842;66;1670;-20
2023/12/26 04:00:30;;;;;;;;;;;;;;;;;;2208318;66;1798;-18
2023/12/26 04:03:01;;;;;;;;;;;;;;;;;;2204386;59;2228;-20
2023/12/26 04:05:31;;;;;;;;;;;;;;;;;;2208166;66;1688;-18
2023/12/26 04:08:03;;;;;;;;;;;;;;;;;;2204219;66;1933;-18
2023/12/26 04:10:34;;;;;;;;;;;;;;;;;;2207221;59;1271;-20
2023/12/26 04:13:04;;;;;;;;;;;;;;;;;;2202092;58;1517;-18
2023/12/26 04:15:34;;;;;;;;;;;;;;;;;;2207712;59;1554;-20
2023/12/26 04:18:05;;;;;;;;;;;;;;;;;;2207795;66;1600;-20
2023/12/26 04:20:35;;;;;;;;;;;;;;;;;;2207358;66;1478;-18
2023/12/26 04:23:05;;;;;;;;;;;;;;;;;;2204669;66;1913;-20
2023/12/26 04:25:36;;;;;;;;;;;;;;;;;;2208261;66;2149;-20
2023/12/26 04:28:06;;;;;;;;;;;;;;;;;;2207958;66;1992;-20
2023/12/26 04:30:37;;;;;;;;;;;;;;;;;;2205427;66;1386;-20
2023/12/26 04:33:10;;;;;;;;;;;;;;;;;;2208143;59;1929;-18
2023/12/26 04:35:40;;;;;;;;;;;;;;;;;;2206099;59;1698;-18
2023/12/26 04:38:12;;;;;;;;;;;;;;;;;;2204826;66;1548;-19
2023/12/26 04:40:42;;;;;;;;;;;;;;;;;;2208831;66;1306;-20
2023/12/26 04:43:15;;;;;;;;;;;;;;;;;;2208220;66;1303;-18
2023/12/26 04:45:45;;;;;;;;;;;;;;;;;;2204991;67;1288;-20
2023/12/26 04:48:16;;;;;;;;;;;;;;;;;;2207865;66;2258;-20
2023/12/26 04:50:47;;;;;;;;;;;;;;;;;;2206333;59;1462;-20
2023/12/26 04:53:18;;;;;;;;;;;;;;;;;;2203197;66;1863;-20
2023/12/26 04:55:48;;;;;;;;;;;;;;;;;;2208591;59;1488;-18
2023/12/26 04:58:19;;;;;;;;;;;;;;;;;;2208166;59;1629;-18
2023/12/26 05:00:50;;;;;;;;;;;;;;;;;;2207252;59;1494;-18
2023/12/26 05:03:20;;;;;;;;;;;;;;;;;;2208416;59;2095;-18
2023/12/26 05:05:51;;;;;;;;;;;;;;;;;;2208864;66;2100;-18
2023/12/26 05:08:21;;;;;;;;;;;;;;;;;;2207908;66;1953;-20
2023/12/26 05:10:51;;;;;;;;;;;;;;;;;;2205314;59;1356;-20
2023/12/26 05:13:22;;;;;;;;;;;;;;;;;;2207917;58;1678;-20
2023/12/26 05:15:52;;;;;;;;;;;;;;;;;;2209186;59;1534;-20
2023/12/26 05:18:22;;;;;;;;;;;;;;;;;;2204609;66;2089;-18
2023/12/26 05:20:53;;;;;;;;;;;;;;;;;;2207815;66;1529;-20
2023/12/26 05:23:23;;;;;;;;;;;;;;;;;;2207344;59;1380;-18
2023/12/26 05:25:53;;;;;;;;;;;;;;;;;;2202349;67;1572;-19
2023/12/26 05:28:24;;;;;;;;;;;;;;;;;;2203746;66;1945;-18
2023/12/26 05:30:54;;;;;;;;;;;;;;;;;;2208123;66;1341;-20
2023/12/26 05:33:24;;;;;;;;;;;;;;;;;;2204622;59;2455;-18
2023/12/26 05:35:55;;;;;;;;;;;;;;;;;;2207226;66;1431;-20
2023/12/26 05:38:25;;;;;;;;;;;;;;;;;;2206695;66;1546;-20
2023/12/26 05:40:56;;;;;;;;;;;;;;;;;;2206916;66;1731;-18
2023/12/26 05:43:26;;;;;;;;;;;;;;;;;;2203553;59;1471;-18
2023/12/26 05:45:56;;;;;;;;;;;;;;;;;;2205173;67;1479;-18
2023/12/26 05:48:27;;;;;;;;;;;;;;;;;;2207225;66;1933;-18
2023/12/26 05:50:57;;;;;;;;;;;;;;;;;;2207350;66;1812;-20
2023/12/26 05:53:30;;;;;;;;;;;;;;;;;;2203522;66;1457;-20
2023/12/26 05:56:00;;;;;;;;;;;;;;;;;;2207189;66;1420;-20
2023/12/26 05:58:30;;;;;;;;;;;;;;;;;;2206325;59;2159;-20
2023/12/26 06:01:01;;;;;;;;;;;;;;;;;;2207283;66;2147;-20
2023/12/26 06:03:32;;;;;;;;;;;;;;;;;;2204041;66;1692;-20
2023/12/26 06:06:03;;;;;;;;;;;;;;;;;;2208255;59;1863;-20
2023/12/26 06:08:34;;;;;;;;;;;;;;;;;;2204399;66;1911;-18
2023/12/26 06:11:04;;;;;;;;;;;;;;;;;;2206828;59;1528;-19
2023/12/26 06:13:35;;;;;;;;;;;;;;;;;;2205064;59;1355;-18
2023/12/26 06:16:05;;;;;;;;;;;;;;;;;;2206709;59;1643;-20
2023/12/26 06:18:35;;;;;;;;;;;;;;;;;;2205987;66;1370;-18
2023/12/26 06:21:06;;;;;;;;;;;;;;;;;;2208129;66;1450;-18
2023/12/26 06:23:36;;;;;;;;;;;;;;;;;;2205317;66;1495;-20
2023/12/26 06:26:07;;;;;;;;;;;;;;;;;;2206832;66;2268;-18
2023/12/26 06:28:37;;;;;;;;;;;;;;;;;;2207697;66;1996;-18
2023/12/26 06:31:13;;;;;;;;;;;;;;;;;;2204170;59;2335;-20
2023/12/26 06:33:44;;;;;;;;;;;;;;;;;;2204271;59;2174;-18
2023/12/26 06:36:14;;;;;;;;;;;;;;;;;;2207375;59;1653;-20
2023/12/26 06:38:45;;;;;;;;;;;;;;;;;;2207852;66;1778;-20
2023/12/26 06:41:16;;;;;;;;;;;;;;;;;;2207009;66;1832;-20
2023/12/26 06:43:46;;;;;;;;;;;;;;;;;;2207332;59;1799;-18
2023/12/26 06:46:16;;;;;;;;;;;;;;;;;;2205053;66;1450;-18
2023/12/26 06:48:47;;;;;;;;;;;;;;;;;;2207400;59;1988;-20
2023/12/26 06:51:17;;;;;;;;;;;;;;;;;;2202081;59;1756;-20
2023/12/26 06:53:48;;;;;;;;;;;;;;;;;;2207348;66;1672;-20
2023/12/26 06:56:18;;;;;;;;;;;;;;;;;;2207297;66;1515;-18
2023/12/26 06:58:49;;;;;;;;;;;;;;;;;;2207522;66;1366;-20
2023/12/26 07:01:19;;;;;;;;;;;;;;;;;;2204490;66;1675;-20
2023/12/26 07:03:50;;;;;;;;;;;;;;;;;;2204057;67;1251;-20
2023/12/26 07:06:20;;;;;;;;;;;;;;;;;;2207739;66;1769;-18
2023/12/26 07:08:50;;;;;;;;;;;;;;;;;;2206395;67;1938;-20
2023/12/26 07:11:21;;;;;;;;;;;;;;;;;;2205435;59;1787;-20
2023/12/26 07:13:51;;;;;;;;;;;;;;;;;;2208481;58;1805;-18
2023/12/26 07:16:22;;;;;;;;;;;;;;;;;;2208664;59;1701;-18
2023/12/26 07:18:53;;;;;;;;;;;;;;;;;;2205218;59;1489;-18
2023/12/26 07:21:24;;;;;;;;;;;;;;;;;;2209347;66;2212;-18
2023/12/26 07:23:54;;;;;;;;;;;;;;;;;;2208818;66;1705;-18
2023/12/26 07:26:25;;;;;;;;;;;;;;;;;;2203080;66;1595;-18
2023/12/26 07:28:55;;;;;;;;;;;;;;;;;;2200101;66;1948;-18
2023/12/26 07:31:26;;;;;;;;;;;;;;;;;;2208221;59;2119;-18
2023/12/26 07:33:59;;;;;;;;;;;;;;;;;;2204828;59;2191;-17
2023/12/26 07:36:29;;;;;;;;;;;;;;;;;;2208915;66;1829;-18
2023/12/26 07:38:59;;;;;;;;;;;;;;;;;;2206982;67;1872;-18
2023/12/26 07:41:30;;;;;;;;;;;;;;;;;;2204630;66;1709;-20
2023/12/26 07:44:01;;;;;;;;;;;;;;;;;;2205652;59;2066;-20
2023/12/26 07:46:31;;;;;;;;;;;;;;;;;;2207484;66;1731;-20
2023/12/26 07:49:02;;;;;;;;;;;;;;;;;;2204503;66;2000;-20
2023/12/26 07:51:32;;;;;;;;;;;;;;;;;;2207666;66;1669;-18
2023/12/26 07:54:03;;;;;;;;;;;;;;;;;;2203693;67;1916;-18
2023/12/26 07:56:33;;;;;;;;;;;;;;;;;;2203294;59;1780;-18
2023/12/26 07:59:04;;;;;;;;;;;;;;;;;;2205720;67;1731;-18
2023/12/26 08:01:34;;;;;;;;;;;;;;;;;;2209106;59;1972;-18
2023/12/26 08:04:05;;;;;;;;;;;;;;;;;;2206287;59;2525;-18
2023/12/26 08:06:35;;;;;;;;;;;;;;;;;;2205609;58;1828;-19
2023/12/26 08:09:06;;;;;;;;;;;;;;;;;;2209666;59;1943;-18
2023/12/26 08:11:37;;;;;;;;;;;;;;;;;;2208595;59;1534;-18
2023/12/26 08:14:08;;;;;;;;;;;;;;;;;;2208084;58;1549;-20
2023/12/26 08:16:38;;;;;;;;;;;;;;;;;;2207757;66;1921;-18
2023/12/26 08:19:09;;;;;;;;;;;;;;;;;;2208690;59;1670;-20
2023/12/26 08:21:39;;;;;;;;;;;;;;;;;;2205992;66;1883;-18
2023/12/26 08:24:09;;;;;;;;;;;;;;;;;;2209168;59;1757;-18
2023/12/26 08:26:40;;;;;;;;;;;;;;;;;;2209089;59;1997;-18
2023/12/26 08:29:10;;;;;;;;;;;;;;;;;;2207572;59;2196;-20
2023/12/26 08:31:41;;;;;;;;;;;;;;;;;;2210788;58;2138;-18
2023/12/26 08:34:17;;;;;;;;;;;;;;;;;;2209628;58;2318;-18
2023/12/26 08:36:51;;;;;;;;;;;;;;;;;;2209935;59;1727;-18
2023/12/26 08:39:22;;;;;;;;;;;;;;;;;;2205368;66;1706;-18
2023/12/26 08:41:53;;;;;;;;;;;;;;;;;;2209143;59;1842;-18
2023/12/26 08:44:26;;;;;;;;;;;;;;;;;;2208996;59;1665;-18
2023/12/26 08:47:01;;;;;;;;;;;;;;;;;;2209353;59;2203;-18
2023/12/26 08:49:31;;;;;;;;;;;;;;;;;;2207915;58;2215;-18
2023/12/26 08:52:02;;;;;;;;;;;;;;;;;;2206172;59;1811;-18
2023/12/26 08:54:33;;;;;;;;;;;;;;;;;;2208623;59;2058;-18
2023/12/26 08:57:04;;;;;;;;;;;;;;;;;;2204685;59;1713;-18
2023/12/26 08:59:34;;;;;;;;;;;;;;;;;;2209889;59;1639;-19
2023/12/26 09:02:05;;;;;;;;;;;;;;;;;;2206246;66;3217;-18
2023/12/26 09:04:36;;;;;;;;;;;;;;;;;;2209158;59;1930;-18
2023/12/26 09:07:06;;;;;;;;;;;;;;;;;;2206072;59;1874;-18
2023/12/26 09:09:37;;;;;;;;;;;;;;;;;;2207833;58;2021;-18
2023/12/26 09:12:07;;;;;;;;;;;;;;;;;;2209964;59;1511;-18
2023/12/26 09:14:41;;;;;;;;;;;;;;;;;;2209684;58;1793;-28
2023/12/26 09:17:11;;;;;;;;;;;;;;;;;;2209770;59;1606;-18
2023/12/26 09:19:42;;;;;;;;;;;;;;;;;;2208001;59;1522;-20
2023/12/26 09:22:15;;;;;;;;;;;;;;;;;;2206416;58;2512;-20
2023/12/26 09:24:46;;;;;;;;;;;;;;;;;;2209564;59;1642;-20
2023/12/26 09:27:16;;;;;;;;;;;;;;;;;;2205991;59;1934;-20
2023/12/26 09:29:47;;;;;;;;;;;;;;;;;;2206545;66;1672;-20
2023/12/26 09:32:18;;;;;;;;;;;;;;;;;;2205065;59;2340;-18
2023/12/26 09:34:49;;;;;;;;;;;;;;;;;;2205995;66;1463;-18
2023/12/26 09:37:19;;;;;;;;;;;;;;;;;;2203501;66;1776;-18
2023/12/26 09:39:50;;;;;;;;;;;;;;;;;;2206385;66;1776;-20
2023/12/26 09:42:24;;;;;;;;;;;;;;;;;;2205501;59;2134;-20
2023/12/26 09:44:56;;;;;;;;;;;;;;;;;;2209814;53;3210;-18
2023/12/26 09:47:29;;;;;;;;;;;;;;;;;;2201138;59;2565;-18
2023/12/26 09:50:02;;;;;;;;;;;;;;;;;;2206428;59;2123;-18
2023/12/26 09:52:38;;;;;;;;;;;;;;;;;;2203230;59;1798;-18
2023/12/26 09:55:10;;;;;;;;;;;;;;;;;;2205572;59;2236;-18
2023/12/26 09:57:42;;;;;;;;;;;;;;;;;;2201932;59;1900;-18
2023/12/26 10:00:13;;;;;;;;;;;;;;;;;;2206690;59;2194;-19
2023/12/26 10:02:45;;;;;;;;;;;;;;;;;;2205064;59;2607;-18
2023/12/26 10:05:17;;;;;;;;;;;;;;;;;;2199071;59;2215;-18
2023/12/26 10:07:48;;;;;;;;;;;;;;;;;;2198975;59;2596;-18
2023/12/26 10:10:21;;;;;;;;;;;;;;;;;;2206671;59;2263;-18
2023/12/26 10:12:53;;;;;;;;;;;;;;;;;;2203663;59;2125;-18
2023/12/26 10:15:27;;;;;;;;;;;;;;;;;;2207160;59;3011;-18
2023/12/26 10:17:58;;;;;;;;;;;;;;;;;;2208009;59;2280;-18
2023/12/26 10:20:31;;;;;;;;;;;;;;;;;;2203367;59;1946;-20
2023/12/26 10:23:04;;;;;;;;;;;;;;;;;;2206256;59;2346;-19
2023/12/26 10:25:35;;;;;;;;;;;;;;;;;;2200039;59;1707;-18
2023/12/26 10:28:06;;;;;;;;;;;;;;;;;;2203824;59;2705;-18
2023/12/26 10:30:38;;;;;;;;;;;;;;;;;;2198067;59;3742;-20
2023/12/26 10:33:09;;;;;;;;;;;;;;;;;;2201727;59;2509;-20
2023/12/26 10:35:40;;;;;;;;;;;;;;;;;;2200810;59;2172;-18
2023/12/26 10:38:11;;;;;;;;;;;;;;;;;;2202022;59;2346;-19
2023/12/26 10:40:42;;;;;;;;;;;;;;;;;;2202633;59;2322;-18
2023/12/26 10:43:13;;;;;;;;;;;;;;;;;;2206652;59;1818;-18
2023/12/26 10:45:44;;;;;;;;;;;;;;;;;;2202847;59;2787;-18
2023/12/26 10:48:16;;;;;;;;;;;;;;;;;;2208349;59;1991;-18
2023/12/26 10:50:47;;;;;;;;;;;;;;;;;;2205881;59;2205;-18
2023/12/26 10:53:21;;;;;;;;;;;;;;;;;;2205497;59;2472;-20
2023/12/26 10:55:54;;;;;;;;;;;;;;;;;;2201853;59;2070;-18
2023/12/26 10:58:29;;;;;;;;;;;;;;;;;;2205760;59;2286;-18
2023/12/26 11:01:01;;;;;;;;;;;;;;;;;;2202392;59;2520;-18
2023/12/26 11:03:32;;;;;;;;;;;;;;;;;;2198088;59;1727;-20
2023/12/26 11:06:03;;;;;;;;;;;;;;;;;;2205465;59;2272;-18
2023/12/26 11:08:34;;;;;;;;;;;;;;;;;;2204542;59;1981;-18
2023/12/26 11:11:05;;;;;;;;;;;;;;;;;;2205150;59;1826;-20
2023/12/26 11:13:37;;;;;;;;;;;;;;;;;;2203693;59;2518;-20
2023/12/26 11:16:09;;;;;;;;;;;;;;;;;;2202155;59;2154;-20
2023/12/26 11:18:40;;;;;;;;;;;;;;;;;;2200482;59;1968;-20
2023/12/26 11:21:12;;;;;;;;;;;;;;;;;;2204281;59;1875;-19
2023/12/26 11:23:45;;;;;;;;;;;;;;;;;;2203137;59;1745;-18
2023/12/26 11:26:16;;;;;;;;;;;;;;;;;;2197859;59;2150;-19
2023/12/26 11:28:48;;;;;;;;;;;;;;;;;;2205195;59;2014;-18
2023/12/26 11:31:20;;;;;;;;;;;;;;;;;;2201446;59;2641;-18
2023/12/26 11:33:51;;;;;;;;;;;;;;;;;;2201438;59;3195;-18
2023/12/26 11:36:22;;;;;;;;;;;;;;;;;;2202524;59;1862;-18
2023/12/26 11:38:53;;;;;;;;;;;;;;;;;;2202050;59;2215;-18
2023/12/26 11:41:24;;;;;;;;;;;;;;;;;;2197198;59;2472;-18
2023/12/26 11:43:56;;;;;;;;;;;;;;;;;;2204823;59;2603;-18
2023/12/26 11:46:28;;;;;;;;;;;;;;;;;;2204405;59;2386;-18
2023/12/26 11:48:59;;;;;;;;;;;;;;;;;;2205630;59;1915;-18
2023/12/26 11:51:29;;;;;;;;;;;;;;;;;;2202897;59;3025;-20
2023/12/26 11:54:01;;;;;;;;;;;;;;;;;;2205517;59;2646;-18
2023/12/26 11:56:32;;;;;;;;;;;;;;;;;;2205383;59;2949;-18
2023/12/26 11:59:04;;;;;;;;;;;;;;;;;;2198798;60;2647;-19
2023/12/26 12:01:34;;;;;;;;;;;;;;;;;;2200563;59;2263;-20
2023/12/26 12:04:05;;;;;;;;;;;;;;;;;;2201585;59;2079;-20
2023/12/26 12:06:36;;;;;;;;;;;;;;;;;;2199351;59;2598;-20
2023/12/26 12:09:06;;;;;;;;;;;;;;;;;;2205567;59;1944;-18
2023/12/26 12:11:49;;;;;;;;;;;;;;;;;;2203884;59;2266;-18
2023/12/26 12:14:19;;;;;;;;;;;;;;;;;;2203812;59;2314;-18
2023/12/26 12:16:50;;;;;;;;;;;;;;;;;;2203492;59;2595;-18
2023/12/26 12:19:20;;;;;;;;;;;;;;;;;;2204634;67;1959;-20
2023/12/26 12:21:51;;;;;;;;;;;;;;;;;;2203607;59;2021;-18
2023/12/26 12:24:22;;;;;;;;;;;;;;;;;;2199287;59;2622;-18
2023/12/26 12:27:18;;;;;;;;;;;;;;;;;;2203243;59;2472;-18
2023/12/26 12:30:06;;;;;;;;;;;;;;;;;;2197930;59;2929;-20
2023/12/26 12:32:37;;;;;;;;;;;;;;;;;;2202396;59;3709;-18
2023/12/26 12:35:16;;;;;;;;;;;;;;;;;;2203076;67;2735;-20
2023/12/26 12:37:47;;;;;;;;;;;;;;;;;;2203183;67;2908;-20
2023/12/26 12:40:17;;;;;;;;;;;;;;;;;;2204858;67;2101;-20
2023/12/26 12:42:47;;;;;;;;;;;;;;;;;;2203582;59;2050;-20
2023/12/26 12:45:18;;;;;;;;;;;;;;;;;;2205229;59;2308;-20
2023/12/26 12:47:48;;;;;;;;;;;;;;;;;;2203228;59;2144;-19
2023/12/26 12:50:19;;;;;;;;;;;;;;;;;;2206228;59;2298;-19
2023/12/26 12:52:49;;;;;;;;;;;;;;;;;;2206444;59;1801;-19
2023/12/26 12:55:20;;;;;;;;;;;;;;;;;;2203274;67;2550;-19
2023/12/26 12:57:50;;;;;;;;;;;;;;;;;;2205502;59;2065;-20
2023/12/26 13:00:21;;;;;;;;;;;;;;;;;;2205838;59;1882;-20
2023/12/26 13:02:51;;;;;;;;;;;;;;;;;;2205320;59;2000;-20
2023/12/26 13:05:22;;;;;;;;;;;;;;;;;;2206271;67;3131;-20
2023/12/26 13:07:53;;;;;;;;;;;;;;;;;;2202351;59;2850;-20
2023/12/26 13:10:23;;;;;;;;;;;;;;;;;;2199268;59;1844;-20
2023/12/26 13:12:55;;;;;;;;;;;;;;;;;;2205196;59;1877;-20
2023/12/26 13:15:26;;;;;;;;;;;;;;;;;;2201786;59;2360;-22
2023/12/26 13:17:57;;;;;;;;;;;;;;;;;;2205469;67;3605;-20
2023/12/26 13:20:28;;;;;;;;;;;;;;;;;;2204160;59;2361;-20
2023/12/26 13:22:58;;;;;;;;;;;;;;;;;;2202999;60;2708;-20
2023/12/26 13:25:29;;;;;;;;;;;;;;;;;;2198555;59;2094;-21
2023/12/26 13:28:05;;;;;;;;;;;;;;;;;;2204678;59;2682;-20
2023/12/26 13:30:37;;;;;;;;;;;;;;;;;;2199953;59;2643;-20
2023/12/26 13:33:08;;;;;;;;;;;;;;;;;;2204780;59;2828;-20
2023/12/26 13:35:38;;;;;;;;;;;;;;;;;;2200534;59;3495;-20
2023/12/26 13:38:09;;;;;;;;;;;;;;;;;;2205118;59;1867;-20
2023/12/26 13:40:40;;;;;;;;;;;;;;;;;;2204840;59;1764;-19
2023/12/26 13:43:10;;;;;;;;;;;;;;;;;;2205689;67;2073;-19
2023/12/26 13:45:41;;;;;;;;;;;;;;;;;;2205456;59;2213;-19
2023/12/26 13:48:11;;;;;;;;;;;;;;;;;;2205583;59;2171;-18
2023/12/26 13:50:42;;;;;;;;;;;;;;;;;;2201354;67;1881;-18
2023/12/26 13:53:13;;;;;;;;;;;;;;;;;;2203067;59;3186;-20
2023/12/26 13:55:44;;;;;;;;;;;;;;;;;;2188664;59;1903;-20
2023/12/26 13:58:15;;;;;;;;;;;;;;;;;;2185976;59;2391;-18
2023/12/26 14:00:46;;;;;;;;;;;;;;;;;;2186174;59;1793;-18
2023/12/26 14:03:18;;;;;;;;;;;;;;;;;;2184138;59;2247;-18
2023/12/26 14:05:48;;;;;;;;;;;;;;;;;;2185237;59;2265;-20
2023/12/26 14:08:19;;;;;;;;;;;;;;;;;;2186798;59;1916;-20
2023/12/26 14:10:50;;;;;;;;;;;;;;;;;;2185083;59;1741;-19
2023/12/26 14:13:21;;;;;;;;;;;;;;;;;;2186574;59;1797;-20
2023/12/26 14:15:52;;;;;;;;;;;;;;;;;;2185959;59;1956;-20
2023/12/26 14:18:22;;;;;;;;;;;;;;;;;;2188162;59;1991;-18
2023/12/26 14:20:53;;;;;;;;;;;;;;;;;;2184595;59;1737;-19
2023/12/26 14:23:24;;;;;;;;;;;;;;;;;;2185499;59;1843;-18
2023/12/26 14:25:56;;;;;;;;;;;;;;;;;;2188058;59;1779;-20
2023/12/26 14:28:27;;;;;;;;;;;;;;;;;;2183025;59;1924;-20
2023/12/26 14:30:59;;;;;;;;;;;;;;;;;;2185676;59;2218;-18
2023/12/26 14:33:36;;;;;;;;;;;;;;;;;;2183042;59;2442;-18
2023/12/26 14:36:11;;;;;;;;;;;;;;;;;;2185926;59;2853;-20
2023/12/26 14:38:41;;;;;;;;;;;;;;;;;;2185302;59;2485;-20
2023/12/26 14:41:12;;;;;;;;;;;;;;;;;;2186298;59;2028;-18
2023/12/26 14:43:42;;;;;;;;;;;;;;;;;;2185933;67;1729;-18
2023/12/26 14:46:15;;;;;;;;;;;;;;;;;;2186854;59;1757;-18
2023/12/26 14:48:50;;;;;;;;;;;;;;;;;;2188573;59;1992;-18
2023/12/26 14:51:22;;;;;;;;;;;;;;;;;;2186269;59;2283;-18
2023/12/26 14:53:54;;;;;;;;;;;;;;;;;;2184905;59;1804;-18
2023/12/26 14:56:26;;;;;;;;;;;;;;;;;;2189183;59;2107;-18
2023/12/26 14:58:57;;;;;;;;;;;;;;;;;;2186252;59;2103;-18
2023/12/26 15:01:29;;;;;;;;;;;;;;;;;;2186114;67;2042;-20
2023/12/26 15:04:00;;;;;;;;;;;;;;;;;;2182756;59;2312;-19
2023/12/26 15:06:31;;;;;;;;;;;;;;;;;;2184667;59;2602;-20
2023/12/26 15:09:03;;;;;;;;;;;;;;;;;;2184946;59;2083;-21
2023/12/26 15:11:36;;;;;;;;;;;;;;;;;;2182099;59;2188;-28
2023/12/26 15:14:12;;;;;;;;;;;;;;;;;;2187081;59;2600;-20
2023/12/26 15:16:43;;;;;;;;;;;;;;;;;;2180441;60;2129;-20
2023/12/26 15:19:14;;;;;;;;;;;;;;;;;;2188224;59;1846;-18
2023/12/26 15:21:46;;;;;;;;;;;;;;;;;;2182690;59;2830;-20
2023/12/26 15:24:17;;;;;;;;;;;;;;;;;;2183719;59;1786;-20
2023/12/26 15:26:48;;;;;;;;;;;;;;;;;;2183115;59;2299;-18
2023/12/26 15:29:19;;;;;;;;;;;;;;;;;;2185353;59;2005;-20
2023/12/26 15:31:51;;;;;;;;;;;;;;;;;;2184730;59;2448;-20
2023/12/26 15:34:25;;;;;;;;;;;;;;;;;;2188964;59;2471;-20
2023/12/26 15:36:56;;;;;;;;;;;;;;;;;;2182044;59;2857;-20
2023/12/26 15:39:26;;;;;;;;;;;;;;;;;;2187111;67;1838;-20
2023/12/26 15:41:57;;;;;;;;;;;;;;;;;;2187970;59;2040;-20
2023/12/26 15:44:28;;;;;;;;;;;;;;;;;;2186799;59;2147;-20
2023/12/26 15:46:58;;;;;;;;;;;;;;;;;;2188213;59;2054;-18
2023/12/26 15:49:29;;;;;;;;;;;;;;;;;;2187584;59;2365;-20
2023/12/26 15:52:03;;;;;;;;;;;;;;;;;;2189014;59;1871;-20
2023/12/26 15:54:39;;;;;;;;;;;;;;;;;;2186923;59;2022;-20
2023/12/26 15:57:10;;;;;;;;;;;;;;;;;;2188087;59;2749;-20
2023/12/26 15:59:50;;;;;;;;;;;;;;;;;;2185378;59;2368;-20
2023/12/26 16:02:22;;;;;;;;;;;;;;;;;;2184009;59;2161;-20
2023/12/26 16:04:55;;;;;;;;;;;;;;;;;;2189820;67;2568;-18
2023/12/26 16:07:27;;;;;;;;;;;;;;;;;;2187036;59;1836;-18
2023/12/26 16:09:58;;;;;;;;;;;;;;;;;;2182748;67;1875;-18
2023/12/26 16:12:30;;;;;;;;;;;;;;;;;;2184956;59;1926;-20
2023/12/26 16:15:03;;;;;;;;;;;;;;;;;;2185652;59;1745;-20
2023/12/26 16:17:35;;;;;;;;;;;;;;;;;;2188090;67;1886;-20
2023/12/26 16:20:06;;;;;;;;;;;;;;;;;;2184709;59;2060;-20
2023/12/26 16:22:37;;;;;;;;;;;;;;;;;;2186833;59;1995;-20
2023/12/26 16:25:08;;;;;;;;;;;;;;;;;;2188253;59;2622;-20
2023/12/26 16:27:39;;;;;;;;;;;;;;;;;;2182820;59;2045;-20
2023/12/26 16:30:12;;;;;;;;;;;;;;;;;;2186915;59;2405;-20
2023/12/26 16:32:43;;;;;;;;;;;;;;;;;;2188431;59;3461;-18
2023/12/26 16:35:14;;;;;;;;;;;;;;;;;;2187431;59;2497;-18
2023/12/26 16:37:46;;;;;;;;;;;;;;;;;;2185223;59;2849;-22
2023/12/26 16:40:16;;;;;;;;;;;;;;;;;;2202141;59;2148;-20
2023/12/26 16:42:48;;;;;;;;;;;;;;;;;;2188027;67;2098;-18
2023/12/26 16:45:22;;;;;;;;;;;;;;;;;;2190412;59;1991;-19
2023/12/26 16:47:54;;;;;;;;;;;;;;;;;;2187239;59;2099;-18
2023/12/26 16:50:25;;;;;;;;;;;;;;;;;;2187289;59;1817;-20
2023/12/26 16:52:55;;;;;;;;;;;;;;;;;;2187649;67;2200;-18
2023/12/26 16:55:26;;;;;;;;;;;;;;;;;;2190481;67;1775;-20
2023/12/26 16:57:56;;;;;;;;;;;;;;;;;;2189135;59;3092;-20
2023/12/26 17:00:27;;;;;;;;;;;;;;;;;;2189786;67;1761;-18
2023/12/26 17:02:57;;;;;;;;;;;;;;;;;;2189446;59;3078;-18
2023/12/26 17:05:30;;;;;;;;;;;;;;;;;;2186647;59;2288;-20
2023/12/26 17:08:01;;;;;;;;;;;;;;;;;;2188224;67;1925;-18
2023/12/26 17:10:31;;;;;;;;;;;;;;;;;;2184224;64;1853;-18
2023/12/26 17:13:02;;;;;;;;;;;;;;;;;;2187863;59;1834;-19
2023/12/26 17:15:32;;;;;;;;;;;;;;;;;;2188860;67;1806;-18
2023/12/26 17:18:02;;;;;;;;;;;;;;;;;;2188032;59;1833;-18
2023/12/26 17:20:33;;;;;;;;;;;;;;;;;;2188430;59;1810;-18
2023/12/26 17:23:04;;;;;;;;;;;;;;;;;;2191161;59;1927;-18
2023/12/26 17:25:36;;;;;;;;;;;;;;;;;;2188017;59;2471;-18
2023/12/26 17:28:09;;;;;;;;;;;;;;;;;;2189078;59;2233;-18
2023/12/26 17:30:40;;;;;;;;;;;;;;;;;;2191660;67;2618;-18